METAR AND TAF INFORMATION
METAR FOR LATI
ADDS - METARS form results

(2048 UTC 19 July 2018)
Data provider http://aviationweather.gov/adds/metars/
 
METAR text: LATI 192050Z 14003KT 090V170 9999 SCT092 22/19 Q1012 NOSIG
Conditions at: LATI (TIRANA , AL) observed 2050 UTC 19 July 2018
Temperature: 22.0°C (72°F)
Dewpoint: 19.0°C (66°F) [RH = 83%]
Pressure (altimeter): 29.88 inches Hg (1012.0 mb)
Winds: from the SE (140 degrees) at 3 MPH (3 knots; 1.6 m/s)
Visibility: 6 or more miles (10+ km)
Ceiling: at least 12,000 feet AGL
Clouds: scattered clouds at 9200 feet AGL
Weather: no significant weather observed at this time

METAR text: LATI 192020Z 17003KT CAVOK 23/19 Q1011 NOSIG
Conditions at: LATI (TIRANA , AL) observed 2020 UTC 19 July 2018
Temperature: 23.0°C (73°F)
Dewpoint: 19.0°C (66°F) [RH = 78%]
Pressure (altimeter): 29.85 inches Hg (1011.0 mb)
Winds: from the S (170 degrees) at 3 MPH (3 knots; 1.6 m/s)
Visibility: 6 or more miles (10+ km)
Ceiling: ceiling and visibility are OK
Clouds: unknown
Weather: no significant weather observed at this time

METAR text: LATI 191950Z 17003KT CAVOK 24/20 Q1011 NOSIG
Conditions at: LATI (TIRANA , AL) observed 1950 UTC 19 July 2018
Temperature: 24.0°C (75°F)
Dewpoint: 20.0°C (68°F) [RH = 78%]
Pressure (altimeter): 29.85 inches Hg (1011.0 mb)
Winds: from the S (170 degrees) at 3 MPH (3 knots; 1.6 m/s)
Visibility: 6 or more miles (10+ km)
Ceiling: ceiling and visibility are OK
Clouds: unknown
Weather: no significant weather observed at this time

Forecast for: LATI (TIRANA , AL)
Text: TAF LATI 191700Z 1918/2018 VRB05KT 9999 FEW040 SCT100
Forecast period: 1800 UTC 19 July 2018 to 1000 UTC 20 July 2018
Forecast type: FROM: standard forecast or significant change
Winds: variable direction winds at 6 MPH (5 knots; 2.6 m/s)
Visibility: 6 or more miles (10+ km)
Clouds: few clouds at 4000 feet AGL
scattered clouds at 10000 feet AGL
Weather: no significant weather forecast for this period
Text: TEMPO 1919/2009 CAVOK
Forecast period: 1900 UTC 19 July 2018 to 0900 UTC 20 July 2018
Forecast type: TEMPORARY: The following changes expected for less than half the time period
Visibility: 6 or more miles (10+ km)
Weather: NSW  (no significant weather)
Text: BECMG 2010/2012 34014KT
Forecast period: 1000 to 1800 UTC 20 July 2018
Forecast type: BECOMING: Conditions expected to become as follows by 1200 UTC 20 July 2018
Winds: from the NNW (340 degrees) at 16 MPH (14 knots; 7.3 m/s)
Visibility: 6 or more miles (10+ km)
Clouds: few clouds at 4000 feet AGL
scattered clouds at 10000 feet AGL
Weather: no significant weather forecast for this period

 AIRPORT MAP

 RUNWAY INFORMATION
Runway 18 Runway length 8971 ft Runway width 148 ft
Runway elevation 109 ft Runway displaced threshold 0 ft Runway heading 174
Runway 36 Runway length 8971 ft Runway width 148 ft
Runway elevation 126 ft Runway displaced threshold 0 ft Runway heading 354

 AIRPORT FREQUENCIES
Type ACC Name ACC Frequency 127.5 MHZ
Type APP Name APP Frequency 133.15 MHZ
Type TWR Name TWR Frequency 122.5 MHZ

 AIRPORT NEAR NAVIGATION AIDS
Type NDB Name Tirana Frequency 290 KHZ
Type VOR-DME Name Tirana Frequency 117700 KHZ


... ... ... ... ... ...

© Copyright 2017 All Rights Reserved. Virtual NATO is in no way affiliated with NATO or any of the NATO Members

NATO Virtual is a volunteer not for profit group of friends with the common interest in promoting enjoyment and education through the simulation of military operations and procedure through the use of operating standards within several flight simulation platforms.

Powered by Virtual Airlines Manager [v2.6.2] Customized by Virtual NATO